createdAt,value
2023-03-27T00:02:25.726Z,1.60
2023-03-27T00:04:54.686Z,1.60
2023-03-27T00:07:22.811Z,1.77
2023-03-27T00:09:50.081Z,1.63
2023-03-27T00:12:17.318Z,1.57
2023-03-27T00:14:45.930Z,1.60
2023-03-27T00:17:13.634Z,1.87
2023-03-27T00:19:40.814Z,1.60
2023-03-27T00:22:08.159Z,1.67
2023-03-27T00:24:36.862Z,1.67
2023-03-27T00:27:04.070Z,1.80
2023-03-27T00:29:31.330Z,1.60
2023-03-27T00:31:58.483Z,1.50
2023-03-27T00:34:25.794Z,1.37
2023-03-27T00:36:53.840Z,1.47
2023-03-27T00:39:21.106Z,1.70
2023-03-27T00:41:49.126Z,1.40
2023-03-27T00:44:34.406Z,1.80
2023-03-27T00:47:04.270Z,1.77
2023-03-27T00:49:36.321Z,1.83
2023-03-27T00:52:06.844Z,1.70
2023-03-27T00:54:38.862Z,1.60
2023-03-27T00:57:09.590Z,1.80
2023-03-27T00:59:40.971Z,1.80
2023-03-27T01:02:09.658Z,1.67
2023-03-27T01:04:41.632Z,2.00
2023-03-27T01:07:11.245Z,2.17
2023-03-27T01:09:39.041Z,1.67
2023-03-27T01:12:29.425Z,1.50
2023-03-27T01:15:26.624Z,1.70
2023-03-27T01:18:07.409Z,1.80
2023-03-27T01:20:42.445Z,1.70
2023-03-27T01:23:36.115Z,1.67
2023-03-27T01:26:48.718Z,1.50
2023-03-27T01:29:40.982Z,1.90
2023-03-27T01:32:36.079Z,1.60
2023-03-27T01:35:24.392Z,1.40
2023-03-27T01:38:03.997Z,1.90
2023-03-27T01:40:36.300Z,1.80
2023-03-27T01:43:15.826Z,1.70
2023-03-27T01:46:10.234Z,1.90
2023-03-27T01:49:11.274Z,2.10
2023-03-27T01:52:00.289Z,1.70
2023-03-27T01:54:34.926Z,1.90
2023-03-27T01:57:24.360Z,1.80
2023-03-27T02:00:17.494Z,1.50
2023-03-27T02:02:56.472Z,1.70
2023-03-27T02:05:37.179Z,1.40
2023-03-27T02:08:21.854Z,1.73
2023-03-27T02:10:54.175Z,1.67
2023-03-27T02:13:51.065Z,1.50
2023-03-27T02:16:22.323Z,1.30
2023-03-27T02:18:58.285Z,1.53
2023-03-27T02:21:25.776Z,1.47
2023-03-27T02:23:53.319Z,1.40
2023-03-27T02:26:20.580Z,1.33
2023-03-27T02:29:07.305Z,1.20
2023-03-27T02:32:15.559Z,1.40
2023-03-27T02:35:03.126Z,1.20
2023-03-27T02:37:48.915Z,1.30
2023-03-27T02:40:27.998Z,1.23
2023-03-27T02:43:19.953Z,1.20
2023-03-27T02:45:53.103Z,1.03
2023-03-27T02:48:34.234Z,1.60
2023-03-27T02:51:19.641Z,1.20
2023-03-27T02:53:57.861Z,1.10
2023-03-27T02:56:27.545Z,1.40
2023-03-27T02:59:04.185Z,1.60
2023-03-27T03:01:33.842Z,1.20
2023-03-27T03:04:21.922Z,1.20
2023-03-27T03:06:50.495Z,1.43
2023-03-27T03:09:19.215Z,1.40
2023-03-27T03:11:49.776Z,1.47
2023-03-27T03:14:24.586Z,1.37
2023-03-27T03:16:51.931Z,1.20
2023-03-27T03:19:19.154Z,1.17
2023-03-27T03:21:47.078Z,1.30
2023-03-27T03:24:14.183Z,1.30
2023-03-27T03:26:41.658Z,1.17
2023-03-27T03:29:11.346Z,1.30
2023-03-27T03:31:45.617Z,1.53
2023-03-27T03:34:22.659Z,1.30
2023-03-27T03:36:50.266Z,1.30
2023-03-27T03:39:18.453Z,1.13
2023-03-27T03:41:45.678Z,1.03
2023-03-27T03:44:12.833Z,1.30
2023-03-27T03:46:40.687Z,1.40
2023-03-27T03:49:08.490Z,1.40
2023-03-27T03:51:36.579Z,1.30
2023-03-27T03:54:06.108Z,1.17
2023-03-27T03:56:34.580Z,1.47
2023-03-27T03:59:01.950Z,1.13
2023-03-27T04:01:29.234Z,1.13
2023-03-27T04:03:56.559Z,1.30
2023-03-27T04:06:26.696Z,1.10
2023-03-27T04:08:54.112Z,1.30
2023-03-27T04:11:21.471Z,1.10
2023-03-27T04:13:49.302Z,1.50
2023-03-27T04:16:16.722Z,1.40
2023-03-27T04:18:44.010Z,1.40
2023-03-27T04:21:17.864Z,1.40
2023-03-27T04:23:48.305Z,1.40
2023-03-27T04:26:16.136Z,1.20
2023-03-27T04:28:43.482Z,1.43
2023-03-27T04:31:11.015Z,1.73
2023-03-27T04:33:39.894Z,1.33
2023-03-27T04:36:08.809Z,1.37
2023-03-27T04:38:40.944Z,1.40
2023-03-27T04:41:08.154Z,1.40
2023-03-27T04:43:41.974Z,1.63
2023-03-27T04:46:09.387Z,1.47
2023-03-27T04:48:39.012Z,1.30
2023-03-27T04:51:08.402Z,1.50
2023-03-27T04:53:37.859Z,1.63
2023-03-27T04:56:06.785Z,1.47
2023-03-27T04:58:36.748Z,1.50
2023-03-27T05:01:05.674Z,1.40
2023-03-27T05:03:35.060Z,1.23
2023-03-27T05:06:04.387Z,1.27
2023-03-27T05:08:32.845Z,1.17
2023-03-27T05:11:00.019Z,1.40
2023-03-27T05:13:28.604Z,1.20
2023-03-27T05:15:55.766Z,1.23
2023-03-27T05:18:22.842Z,1.40
2023-03-27T05:20:50.301Z,1.23
2023-03-27T05:23:17.467Z,1.40
2023-03-27T05:25:45.622Z,1.30
2023-03-27T05:28:29.442Z,1.60
2023-03-27T05:30:57.450Z,1.60
2023-03-27T05:33:24.903Z,1.57
2023-03-27T05:35:52.747Z,1.50
2023-03-27T05:38:20.315Z,1.50
2023-03-27T05:40:47.454Z,1.43
2023-03-27T05:43:14.568Z,1.50
2023-03-27T05:45:41.675Z,1.60
2023-03-27T05:48:09.691Z,1.30
2023-03-27T05:50:37.428Z,1.40
2023-03-27T05:53:11.231Z,1.50
2023-03-27T05:55:39.261Z,1.50
2023-03-27T05:58:09.840Z,1.37
2023-03-27T06:00:38.884Z,1.37
2023-03-27T06:03:07.195Z,1.20
2023-03-27T06:05:34.650Z,1.27
2023-03-27T06:08:02.321Z,1.57
2023-03-27T06:10:30.634Z,1.37
2023-03-27T06:13:09.094Z,1.70
2023-03-27T06:15:39.300Z,1.83
2023-03-27T06:18:07.089Z,1.40
2023-03-27T06:20:35.546Z,1.70
2023-03-27T06:23:03.896Z,1.57
2023-03-27T06:25:34.678Z,1.43
2023-03-27T06:28:04.887Z,1.33
2023-03-27T06:30:32.144Z,1.50
2023-03-27T06:33:00.589Z,1.40
2023-03-27T06:35:30.006Z,1.67
2023-03-27T06:37:59.216Z,1.53
2023-03-27T06:40:29.964Z,1.10
2023-03-27T06:43:02.879Z,1.10
2023-03-27T06:45:33.429Z,1.20
2023-03-27T06:48:16.201Z,1.30
2023-03-27T06:50:48.068Z,1.10
2023-03-27T06:55:48.163Z,1.17
2023-03-27T06:58:19.160Z,1.07
2023-03-27T07:00:48.886Z,0.80
2023-03-27T07:03:17.934Z,1.00
2023-03-27T07:05:45.649Z,1.00
2023-03-27T07:10:56.313Z,0.90
2023-03-27T07:13:27.697Z,1.10
2023-03-27T07:15:55.213Z,1.10
2023-03-27T07:18:22.822Z,1.00
2023-03-27T07:20:50.609Z,0.90
2023-03-27T07:23:18.142Z,1.00
2023-03-27T07:25:45.406Z,1.10
2023-03-27T07:28:16.761Z,1.10
2023-03-27T07:30:44.180Z,0.80
2023-03-27T07:33:12.495Z,0.90
2023-03-27T07:35:47.766Z,0.70
2023-03-27T07:38:16.899Z,0.70
2023-03-27T07:40:46.623Z,0.47
2023-03-27T07:43:14.379Z,0.90
2023-03-27T07:45:42.112Z,0.60
2023-03-27T07:48:17.089Z,0.87
2023-03-27T07:50:45.355Z,0.73
2023-03-27T07:53:33.601Z,0.77
2023-03-27T07:56:00.248Z,0.80
2023-03-27T07:58:27.562Z,0.80
2023-03-27T08:00:58.543Z,0.90
2023-03-27T08:03:26.614Z,0.73
2023-03-27T08:05:56.336Z,0.60
2023-03-27T08:08:24.647Z,0.87
2023-03-27T08:10:54.620Z,0.60
2023-03-27T08:13:21.659Z,0.73
2023-03-27T08:15:48.828Z,0.70
2023-03-27T08:18:16.051Z,0.70
2023-03-27T08:20:47.998Z,0.50
2023-03-27T08:23:15.479Z,0.80
2023-03-27T08:25:43.025Z,0.67
2023-03-27T08:28:10.270Z,0.70
2023-03-27T08:30:37.501Z,0.60
2023-03-27T08:33:05.000Z,1.13
2023-03-27T08:35:32.477Z,0.70
2023-03-27T08:37:59.758Z,0.70
2023-03-27T08:40:31.235Z,0.60
2023-03-27T08:43:04.485Z,0.50
2023-03-27T08:45:48.077Z,0.70
2023-03-27T08:48:22.185Z,0.77
2023-03-27T08:51:04.492Z,0.47
2023-03-27T08:53:42.134Z,0.60
2023-03-27T08:56:20.964Z,0.50
2023-03-27T08:58:49.332Z,0.67
2023-03-27T09:01:34.189Z,0.97
2023-03-27T09:04:10.537Z,0.70
2023-03-27T09:06:56.695Z,0.80
2023-03-27T09:09:32.342Z,0.87
2023-03-27T09:12:20.523Z,0.70
2023-03-27T09:15:03.120Z,0.70
2023-03-27T09:17:46.899Z,0.90
2023-03-27T09:20:19.666Z,0.70
2023-03-27T09:23:09.651Z,0.80
2023-03-27T09:25:40.385Z,0.80
2023-03-27T09:28:31.456Z,0.70
2023-03-27T09:31:01.804Z,0.90
2023-03-27T09:33:28.944Z,0.70
2023-03-27T09:35:57.692Z,0.80
2023-03-27T09:38:33.370Z,1.03
2023-03-27T09:41:06.869Z,0.70
2023-03-27T09:44:01.272Z,0.80
2023-03-27T09:46:29.408Z,0.80
2023-03-27T09:49:04.866Z,0.83
2023-03-27T09:51:41.360Z,0.80
2023-03-27T09:54:09.642Z,0.80
2023-03-27T09:56:43.266Z,0.80
2023-03-27T09:59:31.120Z,1.07
2023-03-27T10:02:01.629Z,0.90
2023-03-27T10:04:32.076Z,0.87
2023-03-27T10:07:08.346Z,0.87
2023-03-27T10:09:37.624Z,1.00
2023-03-27T10:12:07.676Z,1.10
2023-03-27T10:14:54.363Z,1.10
2023-03-27T10:17:39.773Z,0.97
2023-03-27T10:20:15.954Z,1.10
2023-03-27T10:22:59.317Z,0.80
2023-03-27T10:25:39.512Z,1.00
2023-03-27T10:28:19.381Z,0.87
2023-03-27T10:30:47.200Z,1.10
2023-03-27T10:33:28.783Z,0.70
2023-03-27T10:35:57.319Z,0.87
2023-03-27T10:38:25.796Z,0.90
2023-03-27T10:40:55.425Z,0.90
2023-03-27T10:43:40.583Z,1.10
2023-03-27T10:46:38.652Z,0.80
2023-03-27T10:49:22.063Z,0.93
2023-03-27T10:52:07.908Z,1.20
2023-03-27T10:54:41.037Z,1.00
2023-03-27T10:57:31.582Z,1.00
2023-03-27T11:00:32.906Z,1.10
2023-03-27T11:03:25.744Z,0.90
2023-03-27T11:05:57.403Z,0.97
2023-03-27T11:08:27.607Z,1.20
2023-03-27T11:11:39.076Z,1.10
2023-03-27T11:14:14.079Z,1.10
2023-03-27T11:16:46.143Z,1.30
2023-03-27T11:19:43.775Z,1.33
2023-03-27T11:22:30.390Z,1.10
2023-03-27T11:25:06.052Z,1.00
2023-03-27T11:27:39.509Z,0.80
2023-03-27T11:30:14.509Z,1.27
2023-03-27T11:32:47.525Z,1.00
2023-03-27T11:35:21.959Z,1.10
2023-03-27T11:38:08.312Z,1.07
2023-03-27T11:40:45.802Z,1.30
2023-03-27T11:43:15.441Z,1.43
2023-03-27T11:45:54.016Z,1.27
2023-03-27T11:48:36.877Z,1.60
2023-03-27T11:51:26.152Z,1.37
2023-03-27T11:54:15.142Z,1.80
2023-03-27T11:56:54.640Z,1.53
2023-03-27T11:59:46.738Z,1.50
2023-03-27T12:02:22.863Z,1.70
2023-03-27T12:05:02.071Z,1.50
2023-03-27T12:08:00.568Z,1.40
2023-03-27T12:10:39.475Z,1.30
2023-03-27T12:13:34.926Z,1.23
2023-03-27T12:16:18.166Z,0.97
2023-03-27T12:19:27.419Z,0.90
2023-03-27T12:22:39.003Z,0.70
2023-03-27T12:25:32.699Z,0.90
2023-03-27T12:28:22.846Z,0.80
2023-03-27T12:31:44.599Z,1.03
2023-03-27T12:34:26.961Z,0.70
2023-03-27T12:36:54.494Z,0.80
2023-03-27T12:39:26.258Z,0.50
2023-03-27T12:41:53.744Z,0.60
2023-03-27T12:44:30.625Z,0.63
2023-03-27T12:47:19.905Z,0.60
2023-03-27T12:50:00.778Z,0.67
2023-03-27T12:52:28.772Z,0.50
2023-03-27T12:55:15.895Z,0.50
2023-03-27T12:57:45.197Z,0.50
2023-03-27T13:00:21.683Z,0.60
2023-03-27T13:03:17.654Z,0.40
2023-03-27T13:06:03.756Z,0.60
2023-03-27T13:08:49.493Z,0.40
2023-03-27T13:11:27.846Z,0.40
2023-03-27T13:14:27.313Z,0.40
2023-03-27T13:17:05.059Z,0.50
2023-03-27T13:20:11.341Z,0.50
2023-03-27T13:23:00.959Z,0.60
2023-03-27T13:26:02.267Z,0.40
2023-03-27T13:28:29.437Z,0.40
2023-03-27T13:31:01.094Z,0.50
2023-03-27T13:33:31.056Z,0.50
2023-03-27T13:35:58.478Z,0.57
2023-03-27T13:38:55.207Z,0.47
2023-03-27T13:41:43.908Z,0.40
2023-03-27T13:44:28.535Z,0.60
2023-03-27T13:47:26.482Z,0.40
2023-03-27T13:50:34.984Z,0.50
2023-03-27T13:53:14.473Z,0.50
2023-03-27T13:55:53.629Z,0.60
2023-03-27T13:58:26.816Z,0.70
2023-03-27T14:01:22.203Z,0.53
2023-03-27T14:04:21.482Z,0.70
2023-03-27T14:07:16.396Z,0.80
2023-03-27T14:10:05.093Z,0.83
2023-03-27T14:12:41.763Z,0.67
2023-03-27T14:15:31.319Z,0.60
2023-03-27T14:18:30.032Z,0.67
2023-03-27T14:21:03.697Z,0.60
2023-03-27T14:23:56.066Z,0.70
2023-03-27T14:26:25.693Z,0.70
2023-03-27T14:28:55.921Z,0.60
2023-03-27T14:31:26.157Z,0.70
2023-03-27T14:33:56.972Z,0.80
2023-03-27T14:36:26.566Z,0.70
2023-03-27T14:38:53.795Z,1.10
2023-03-27T14:41:24.180Z,0.90
2023-03-27T14:43:53.490Z,0.73
2023-03-27T14:46:22.345Z,0.70
2023-03-27T14:48:58.317Z,0.93
2023-03-27T14:51:37.147Z,0.70
2023-03-27T14:54:10.793Z,0.80
2023-03-27T14:56:47.742Z,0.90
2023-03-27T14:59:21.021Z,0.73
2023-03-27T15:01:50.311Z,0.80
2023-03-27T15:04:18.455Z,0.80
2023-03-27T15:06:45.789Z,0.80
2023-03-27T15:09:15.805Z,1.00
2023-03-27T15:11:48.458Z,1.10
2023-03-27T15:14:21.067Z,1.30
2023-03-27T15:16:55.332Z,1.10
2023-03-27T15:19:35.242Z,0.90
2023-03-27T15:22:07.580Z,1.00
2023-03-27T15:24:50.999Z,1.10
2023-03-27T15:27:30.628Z,1.00
2023-03-27T15:30:38.237Z,0.80
2023-03-27T15:33:08.381Z,0.83
2023-03-27T15:35:36.796Z,1.00
2023-03-27T15:38:06.613Z,0.90
2023-03-27T15:40:42.546Z,0.80
2023-03-27T15:43:23.202Z,1.20
2023-03-27T15:46:14.891Z,0.90
2023-03-27T15:48:50.888Z,1.10
2023-03-27T15:51:21.181Z,0.87
2023-03-27T15:53:53.620Z,0.90
2023-03-27T15:56:42.865Z,0.90
2023-03-27T15:59:13.075Z,1.10
2023-03-27T16:01:52.332Z,0.70
2023-03-27T16:04:22.298Z,1.00
2023-03-27T16:06:52.683Z,1.10
2023-03-27T16:09:49.639Z,1.20
2023-03-27T16:12:18.717Z,1.10
2023-03-27T16:14:48.865Z,1.10
2023-03-27T16:17:21.364Z,0.80
2023-03-27T16:19:56.499Z,1.17
2023-03-27T16:22:29.980Z,1.30
2023-03-27T16:24:58.620Z,1.10
2023-03-27T16:27:31.452Z,1.10
2023-03-27T16:29:58.551Z,1.30
2023-03-27T16:32:26.196Z,1.00
2023-03-27T16:34:53.482Z,1.13
2023-03-27T16:37:23.549Z,1.10
2023-03-27T16:39:50.928Z,1.23
2023-03-27T16:42:24.186Z,1.00
2023-03-27T16:44:53.215Z,1.20
2023-03-27T16:47:20.668Z,1.50
2023-03-27T16:49:56.255Z,1.30
2023-03-27T16:52:27.495Z,1.13
2023-03-27T16:54:54.988Z,1.13
2023-03-27T16:57:22.380Z,1.20
2023-03-27T16:59:49.474Z,0.90
2023-03-27T17:02:16.844Z,1.17
2023-03-27T17:04:44.216Z,1.33
2023-03-27T17:07:11.787Z,1.30
2023-03-27T17:09:39.028Z,1.07
2023-03-27T17:12:06.540Z,1.13
2023-03-27T17:14:33.899Z,1.20
2023-03-27T17:17:01.659Z,1.07
2023-03-27T17:19:31.716Z,1.00
2023-03-27T17:21:58.844Z,1.30
2023-03-27T17:24:26.230Z,1.37
2023-03-27T17:26:53.549Z,1.20
2023-03-27T17:29:20.843Z,1.30
2023-03-27T17:31:48.195Z,1.10
2023-03-27T17:34:15.421Z,1.00
2023-03-27T17:36:52.250Z,1.40
2023-03-27T17:39:22.112Z,1.20
2023-03-27T17:41:50.955Z,1.10
2023-03-27T17:44:18.479Z,1.30
2023-03-27T17:46:45.790Z,1.10
2023-03-27T17:49:13.005Z,1.50
2023-03-27T17:51:40.195Z,1.10
2023-03-27T17:54:07.389Z,1.20
2023-03-27T17:56:35.128Z,1.20
2023-03-27T17:59:02.524Z,1.40
2023-03-27T18:01:30.022Z,1.30
2023-03-27T18:04:00.684Z,1.30
2023-03-27T18:06:28.000Z,1.10
2023-03-27T18:08:58.360Z,1.07
2023-03-27T18:11:26.998Z,1.13
2023-03-27T18:13:54.397Z,1.30
2023-03-27T18:16:23.389Z,1.40
2023-03-27T18:18:55.756Z,1.00
2023-03-27T18:21:23.775Z,1.03
2023-03-27T18:23:56.277Z,1.20
2023-03-27T18:26:23.566Z,1.40
2023-03-27T18:28:52.603Z,1.20
2023-03-27T18:31:19.991Z,1.30
2023-03-27T18:33:47.290Z,1.30
2023-03-27T18:36:15.692Z,1.30
2023-03-27T18:38:43.079Z,1.23
2023-03-27T18:41:11.638Z,1.20
2023-03-27T18:43:39.176Z,1.37
2023-03-27T18:46:10.414Z,1.33
2023-03-27T18:48:37.739Z,1.23
2023-03-27T18:51:06.654Z,1.07
2023-03-27T18:53:34.458Z,1.13
2023-03-27T18:56:02.631Z,1.20
2023-03-27T18:58:30.368Z,1.07
2023-03-27T19:00:57.980Z,0.90
2023-03-27T19:03:30.985Z,1.10
2023-03-27T19:06:02.584Z,0.63
2023-03-27T19:08:30.341Z,1.30
2023-03-27T19:10:57.992Z,1.00
2023-03-27T19:13:28.909Z,1.20
2023-03-27T19:15:56.369Z,1.10
2023-03-27T19:18:25.667Z,1.00
2023-03-27T19:20:53.233Z,1.00
2023-03-27T19:23:20.474Z,1.20
2023-03-27T19:25:51.353Z,0.93
2023-03-27T19:28:18.786Z,1.20
2023-03-27T19:30:46.300Z,1.20
2023-03-27T19:33:13.614Z,0.70
2023-03-27T19:35:41.028Z,0.93
2023-03-27T19:38:08.374Z,1.23
2023-03-27T19:40:36.393Z,1.20
2023-03-27T19:43:04.244Z,0.80
2023-03-27T19:45:31.545Z,0.90
2023-03-27T19:47:59.199Z,0.90
2023-03-27T19:50:29.092Z,1.07
2023-03-27T19:53:07.507Z,1.20
2023-03-27T19:55:35.638Z,1.03
2023-03-27T19:58:02.815Z,1.00
2023-03-27T20:00:31.488Z,1.10
2023-03-27T20:03:00.197Z,1.10
2023-03-27T20:05:30.148Z,1.10
2023-03-27T20:07:57.579Z,1.23
2023-03-27T20:10:27.217Z,1.87
2023-03-27T20:12:55.127Z,1.30
2023-03-27T20:15:22.783Z,1.60
2023-03-27T20:17:50.076Z,1.40
2023-03-27T20:20:18.261Z,1.40
2023-03-27T20:22:56.994Z,1.53
2023-03-27T20:25:25.511Z,1.40
2023-03-27T20:27:52.903Z,1.40
2023-03-27T20:30:23.268Z,1.40
2023-03-27T20:32:50.984Z,1.40
2023-03-27T20:35:24.264Z,1.50
2023-03-27T20:37:57.830Z,1.30
2023-03-27T20:40:26.571Z,1.40
2023-03-27T20:43:03.621Z,1.20
2023-03-27T20:45:31.363Z,1.20
2023-03-27T20:48:03.333Z,1.40
2023-03-27T20:50:35.515Z,1.67
2023-03-27T20:53:04.717Z,1.13
2023-03-27T20:55:34.635Z,1.57
2023-03-27T20:58:06.651Z,1.17
2023-03-27T21:00:34.663Z,1.30
2023-03-27T21:03:02.068Z,1.47
2023-03-27T21:05:29.582Z,1.20
2023-03-27T21:07:56.870Z,1.27
2023-03-27T21:10:25.079Z,1.37
2023-03-27T21:12:54.236Z,1.37
2023-03-27T21:15:21.445Z,1.40
2023-03-27T21:17:48.610Z,1.37
2023-03-27T21:20:16.086Z,1.30
2023-03-27T21:22:43.517Z,1.23
2023-03-27T21:25:10.887Z,1.20
2023-03-27T21:27:38.473Z,0.90
2023-03-27T21:30:06.362Z,1.10
2023-03-27T21:32:33.568Z,1.20
2023-03-27T21:35:00.822Z,1.17
2023-03-27T21:37:28.200Z,1.17
2023-03-27T21:39:55.466Z,1.10
2023-03-27T21:42:22.896Z,1.10
2023-03-27T21:44:53.764Z,1.40
2023-03-27T21:47:22.346Z,1.37
2023-03-27T21:49:49.496Z,1.10
2023-03-27T21:52:16.628Z,1.37
2023-03-27T21:54:53.159Z,1.10
2023-03-27T21:57:29.452Z,1.23
2023-03-27T21:59:56.731Z,1.20
2023-03-27T22:02:24.017Z,1.23
2023-03-27T22:04:51.807Z,1.10
2023-03-27T22:07:18.960Z,1.57
2023-03-27T22:09:46.338Z,1.30
2023-03-27T22:12:13.606Z,1.17
2023-03-27T22:14:41.010Z,1.20
2023-03-27T22:17:08.868Z,1.30
2023-03-27T22:19:36.282Z,1.23
2023-03-27T22:22:03.470Z,1.40
2023-03-27T22:24:30.997Z,1.00
2023-03-27T22:26:58.295Z,1.07
2023-03-27T22:29:25.501Z,1.23
2023-03-27T22:31:52.666Z,1.03
2023-03-27T22:34:19.813Z,1.23
2023-03-27T22:36:46.960Z,1.00
2023-03-27T22:39:14.066Z,1.07
2023-03-27T22:41:41.195Z,1.20
2023-03-27T22:44:08.421Z,1.10
2023-03-27T22:46:35.731Z,0.97
2023-03-27T22:49:02.908Z,1.00
2023-03-27T22:51:31.150Z,0.77
2023-03-27T22:53:58.781Z,0.87
2023-03-27T22:56:25.986Z,1.20
2023-03-27T22:58:53.136Z,0.90
2023-03-27T23:01:20.507Z,1.33
2023-03-27T23:03:47.782Z,1.20
2023-03-27T23:06:23.156Z,1.00
2023-03-27T23:08:50.995Z,1.00
2023-03-27T23:11:18.873Z,0.97
2023-03-27T23:13:46.195Z,0.90
2023-03-27T23:16:13.648Z,1.10
2023-03-27T23:18:43.494Z,0.90
2023-03-27T23:21:12.930Z,1.17
2023-03-27T23:23:41.099Z,1.00
2023-03-27T23:26:09.768Z,0.90
2023-03-27T23:28:39.697Z,1.10
2023-03-27T23:31:10.874Z,1.23
2023-03-27T23:33:40.716Z,1.10
2023-03-27T23:36:10.777Z,0.90
2023-03-27T23:38:38.202Z,1.10
2023-03-27T23:41:07.212Z,0.90
2023-03-27T23:43:35.063Z,1.10
2023-03-27T23:46:04.086Z,1.00
2023-03-27T23:48:31.837Z,1.30
2023-03-27T23:50:58.967Z,1.00
2023-03-27T23:53:27.757Z,1.00
2023-03-27T23:55:59.393Z,0.73
2023-03-27T23:58:34.102Z,0.87
